Airfield :
LOGIN :

Register | Disclaimer

   EN    FR    IT 

 










Legend :    VFR   Marginal VFR   IFR   Intensive IFR   Very Intensive IFR
Visi :
Ceiling :
>= 8 km
>= 3000ft
5 to 8 km
1000 to 3000 ft
1500m to 5 km
500 to 1000 ft
800 to 1500m
200 to 500 ft
< 800m
< 200 ft
Symbols :   Thunderstorms  Fog  Heavy snow  Heavy precipitations  Wind > 20 kt
SIGMETs :     Misc.  Thunderstorms  Icing  Turbulence  Mountain Waves  Volcanic Ashes






- Airport Elevation : 588 ft
- IATA code : DME


UUDD - Domodedovo International

CURRENT METAR :
  • 310630Z 10001MPS 9999 BKN029 06/03 Q1018 R88/60D NOSIG

EXPIRED METARs :
  • 310600Z VRB01MPS 8000 BKN030 05/03 Q1018 R88/CLRD60 NOSIG
  • 310530Z VRB01MPS 8000 BKN029 05/03 Q1018 R88/CLRD60 NOSIG
  • 310500Z 11002MPS 8000 BKN029 05/03 Q1017 R88/60D NOSIG
  • 310430Z 09002MPS 050V120 9999 OVC028 05/03 Q1017 R88/CLRD60 NOSIG
  • 310400Z 07001MPS 9999 OVC028 05/03 Q1017 R14R/CLRD60 NOSIG

TAF TAF UUDD
Valid from the 31 at 06:00 until the 01 at 12:00 UTC


310457Z 3106/0112 VRB01MPS 6000 FEW006 BKN016 TX08/3111Z TN04/0104Z
PROB40
TEMPO 3106/3109 0300 FG BKN002
BECMG 3109/3111 03005MPS
TEMPO 3118/0108 FEW003 BKN011



MET'MAP, your aeronautical weather chart ! - Copyright ORBIFLY December 2007 - Disclaimer

ORBIFLY MET'MAP TEAM :

Programming & Development : Alexandra Zaïnal
Concept & original design : Baudouin d'Aumeries
Assistance for programming : Marc-Olivier Méhu
Technical & hardware support : Manuel Goepfert

Contact : metmap@orbifly.com




SOURCES & CREDITS :

   NOAA